AirNav   Pilot Hours Calculator
 
 1124 users online  

53MO Help Heliport
Zalma, Missouri, USA

GOING TO ZALMA?


FAA INFORMATION EFFECTIVE 02 JANUARY 2020

Location

FAA Identifier: 53MO
Lat/Long: 37-09-05.4100N 090-04-16.7400W
37-09.090167N 090-04.279000W
37.1515028,-90.0713167
(estimated)
Elevation: 475 ft. / 145 m (estimated)
Variation: 01E (1990)
From city: 1 mile S of ZALMA, MO
Time zone: UTC -6 (UTC -5 during Daylight Saving Time)
Zip code: 63782

Heliport Operations

Heliport use: Private use. Permission required prior to landing
Activation date: 04/1993
Control tower: no
ARTCC: MEMPHIS CENTER
FSS: SAINT LOUIS FLIGHT SERVICE STATION
Attendance: UNATNDD
Segmented circle: no

Nearby radio navigation aids

VOR radial/distance  VOR name  Freq  Var
CGIr261/24.3CAPE GIRARDEAU VOR/DME112.9002W
FAMr165/32.3FARMINGTON VORTAC115.7001E
MAWr345/36.6MALDEN VORTAC111.2003E

Heliport Services

Runway Information

Helipad H1

Dimensions: 30 x 18 ft. / 9 x 5 m
Surface: concrete
Latitude: 37-09.090167N
Longitude: 090-04.274500W
Elevation: 391.0 ft.
Traffic pattern: leftleft

Heliport Ownership and Management from official FAA records

Ownership: Privately-owned
Owner: ZALMA NEIGHBORHOOD WATCH
ROUTE 1
ZALMA, MO 63787
Phone 573-722-5766
Manager: CONRAD WARD - CHIEF OF POLICE
ROUTE 1
ZALMA, MO 63787
Phone 314-238-2633

Additional Remarks

FOR CD CTC MEMPHIS ARTCC AT 901-368-8453.

Instrument Procedures

There are no published instrument procedures at 53MO.

Some nearby airports with instrument procedures:

KDXE - Dexter Municipal Airport (23 nm S)
KCGI - Cape Girardeau Regional Airport (24 nm E)
KPOF - Poplar Bluff Municipal Airport (26 nm SW)
KSIK - Sikeston Memorial Municipal Airport (29 nm SE)
H88 - A Paul Vance Fredericktown Regional Airport (29 nm N)
 
Loc | Ops | Rwys | IFR | FBO | Links
Com | Nav | Svcs | Stats | Notes

Kansas City Aviation Department
 
Area around 53MO (Help Heliport)
 
Road maps at: MapQuest Bing Google
 
Aerial photo
No photo
 
Sectional chart

 
Airport distance calculator
Flying to Help Heliport? Find the distance to fly.

From to 53MO

Sunrise and sunset
Times for 21-Jan-2020
 Local
(UTC-6)
 Zulu
(UTC)
Morning civil twilight06:4412:44
Sunrise07:1213:12
Sunset17:1223:12
Evening civil twilight17:4023:40

Current date and time
Zulu (UTC)  22-Jan-2020 02:37:03
Local (UTC-6)  21-Jan-2020 20:37:03
 
METAR
KCGI 
24nm E 
220153Z AUTO 12004KT 7SM CLR M04/M07 A3052 RMK AO2 SLP339 T10441067
KPOF 
26nm SW 
220153Z AUTO 10004KT 10SM CLR M02/M07 A3050 RMK AO2 SLP338 T10221067
KSIK 
29nm SE 
220215Z AUTO 00000KT 10SM CLR M04/M05 A3053 RMK AO2
KMAW 
33nm S 
220215Z AUTO 10SM CLR M01/M05 A3052 RMK AO2 TSNO
KFAM 
40nm NW 
220156Z AUTO 15007KT 10SM CLR M04/M07 A3045 RMK AO2 SLP336 T10391072 FZRANO
KCIR 
41nm E 
220215Z AUTO 00000KT 10SM CLR M05/M07 A3053 RMK AO2 T10471066
KPCD 
44nm N 
220215Z AUTO 11008KT 090V150 10SM CLR M03/M07 A3049 RMK AO2 T10351072
TAF
KCGI 
24nm E 
211901Z 2119/2218 VRB04KT P6SM BKN029 FM212000 VRB04KT P6SM BKN035 FM212300 16004KT P6SM BKN250 FM221600 17010KT P6SM OVC180
NOTAMs
Click for the latest NOTAMs
NOTAMs are issued by the DoD/FAA and will open in a separate window not controlled by AirNav.

 

 
 

Would you like to see your business listed on this page?

 If your business provides an interesting product or service to pilots, flight crews, aircraft, or users of the Help Heliport, you should consider listing it here.  To start the listing process, click on the button below
 
Add a business
 

Other Pages about Help Heliport

Update a link
 
Copyright © AirNav, LLC. All rights reserved. Privacy Policy  Contact